createdAt,value
2022-09-06T00:01:21.749Z,101456.09
2022-09-06T00:03:51.921Z,101451.20
2022-09-06T00:06:21.457Z,101452.74
2022-09-06T00:08:50.474Z,101451.75
2022-09-06T00:11:20.523Z,101455.10
2022-09-06T00:13:50.456Z,101455.52
2022-09-06T00:16:25.391Z,101454.20
2022-09-06T00:18:56.838Z,101450.77
2022-09-06T00:21:29.394Z,101451.72
2022-09-06T00:23:59.837Z,101453.55
2022-09-06T00:26:28.952Z,101456.09
2022-09-06T00:29:12.802Z,101452.95
2022-09-06T00:31:48.813Z,101451.20
2022-09-06T00:34:19.469Z,101453.25
2022-09-06T00:36:52.308Z,101457.48
2022-09-06T00:39:22.167Z,101458.45
2022-09-06T00:41:53.183Z,101453.98
2022-09-06T00:44:25.531Z,101452.45
2022-09-06T00:47:00.090Z,101450.25
2022-09-06T00:49:35.307Z,101447.03
2022-09-06T00:52:10.769Z,101447.34
2022-09-06T00:54:40.889Z,101445.70
2022-09-06T00:57:10.307Z,101439.33
2022-09-06T00:59:41.729Z,101438.20
2022-09-06T01:02:11.239Z,101438.91
2022-09-06T01:04:44.113Z,101436.53
2022-09-06T01:07:26.213Z,101436.81
2022-09-06T01:10:09.348Z,101440.11
2022-09-06T01:12:50.137Z,101443.13
2022-09-06T01:15:31.155Z,101438.81
2022-09-06T01:18:16.220Z,101439.25
2022-09-06T01:21:01.595Z,101439.31
2022-09-06T01:24:05.453Z,101442.29
2022-09-06T01:27:12.461Z,101446.40
2022-09-06T01:29:48.384Z,101445.06
2022-09-06T01:32:26.400Z,101448.01
2022-09-06T01:35:03.787Z,101450.71
2022-09-06T01:37:33.560Z,101446.14
2022-09-06T01:40:03.839Z,101447.36
2022-09-06T01:42:34.646Z,101446.08
2022-09-06T01:45:07.942Z,101441.85
2022-09-06T01:47:47.853Z,101440.77
2022-09-06T01:50:40.281Z,101435.84
2022-09-06T01:53:22.737Z,101437.80
2022-09-06T01:55:58.808Z,101438.17
2022-09-06T01:58:45.716Z,101434.61
2022-09-06T02:01:21.475Z,101429.77
2022-09-06T02:03:59.804Z,101424.95
2022-09-06T02:06:32.022Z,101418.55
2022-09-06T02:09:06.879Z,101415.17
2022-09-06T02:11:42.539Z,101410.73
2022-09-06T02:14:15.700Z,101411.63
2022-09-06T02:16:47.784Z,101406.88
2022-09-06T02:19:21.952Z,101410.14
2022-09-06T02:21:55.015Z,101411.09
2022-09-06T02:24:29.870Z,101411.95
2022-09-06T02:26:59.085Z,101413.54
2022-09-06T02:29:28.052Z,101413.56
2022-09-06T02:32:04.055Z,101412.28
2022-09-06T02:34:39.245Z,101413.03
2022-09-06T02:37:08.805Z,101408.45
2022-09-06T02:39:39.216Z,101407.94
2022-09-06T02:42:10.089Z,101409.41
2022-09-06T02:44:39.906Z,101410.72
2022-09-06T02:47:09.310Z,101409.48
2022-09-06T02:49:38.854Z,101410.50
2022-09-06T02:52:08.137Z,101411.12
2022-09-06T02:54:37.208Z,101410.03
2022-09-06T02:57:06.348Z,101409.54
2022-09-06T02:59:37.165Z,101410.83
2022-09-06T03:02:06.379Z,101412.27
2022-09-06T03:04:35.455Z,101412.45
2022-09-06T03:07:04.831Z,101410.64
2022-09-06T03:09:33.924Z,101412.71
2022-09-06T03:12:04.116Z,101419.42
2022-09-06T03:14:35.529Z,101421.05
2022-09-06T03:17:05.217Z,101420.88
2022-09-06T03:19:34.828Z,101423.32
2022-09-06T03:22:03.925Z,101422.95
2022-09-06T03:24:33.152Z,101419.08
2022-09-06T03:27:02.383Z,101421.45
2022-09-06T03:29:31.538Z,101417.60
2022-09-06T03:32:01.497Z,101416.36
2022-09-06T03:34:30.682Z,101419.67
2022-09-06T03:36:59.738Z,101420.89
2022-09-06T03:39:29.345Z,101421.33
2022-09-06T03:41:58.549Z,101424.83
2022-09-06T03:44:27.587Z,101425.65
2022-09-06T03:46:56.648Z,101429.86
2022-09-06T03:49:25.815Z,101429.36
2022-09-06T03:51:55.110Z,101429.10
2022-09-06T03:54:24.538Z,101434.53
2022-09-06T03:56:53.921Z,101437.41
2022-09-06T03:59:23.174Z,101437.70
2022-09-06T04:01:54.703Z,101436.85
2022-09-06T04:04:24.279Z,101436.02
2022-09-06T04:06:53.179Z,101429.84
2022-09-06T04:09:23.785Z,101423.61
2022-09-06T04:11:57.631Z,101424.83
2022-09-06T04:14:26.910Z,101434.72
2022-09-06T04:16:56.098Z,101449.27
2022-09-06T04:19:25.365Z,101456.81
2022-09-06T04:21:54.638Z,101467.09
2022-09-06T04:24:23.674Z,101466.92
2022-09-06T04:26:52.854Z,101459.41
2022-09-06T04:29:22.280Z,101451.30
2022-09-06T04:31:52.134Z,101450.63
2022-09-06T04:34:21.715Z,101451.67
2022-09-06T04:36:50.768Z,101453.02
2022-09-06T04:39:20.614Z,101454.79
2022-09-06T04:41:50.085Z,101451.54
2022-09-06T04:44:19.155Z,101454.27
2022-09-06T04:46:48.494Z,101458.33
2022-09-06T04:49:17.463Z,101459.77
2022-09-06T04:51:47.145Z,101458.13
2022-09-06T04:54:16.246Z,101460.20
2022-09-06T04:56:45.413Z,101464.70
2022-09-06T04:59:14.569Z,101467.23
2022-09-06T05:01:43.753Z,101465.05
2022-09-06T05:04:12.878Z,101469.48
2022-09-06T05:06:42.734Z,101468.79
2022-09-06T05:09:12.489Z,101468.52
2022-09-06T05:11:42.090Z,101466.07
2022-09-06T05:14:11.140Z,101467.52
2022-09-06T05:16:40.418Z,101467.75
2022-09-06T05:19:09.528Z,101464.77
2022-09-06T05:21:38.542Z,101470.97
2022-09-06T05:24:07.842Z,101469.88
2022-09-06T05:26:38.293Z,101470.52
2022-09-06T05:29:07.504Z,101469.04
2022-09-06T05:31:36.691Z,101465.05
2022-09-06T05:34:05.765Z,101465.08
2022-09-06T05:36:35.197Z,101467.14
2022-09-06T05:39:04.307Z,101465.27
2022-09-06T05:41:33.500Z,101461.73
2022-09-06T05:44:03.270Z,101460.14
2022-09-06T05:46:32.388Z,101460.41
2022-09-06T05:49:04.348Z,101455.61
2022-09-06T05:51:33.554Z,101456.14
2022-09-06T05:54:02.773Z,101458.71
2022-09-06T05:56:31.731Z,101458.54
2022-09-06T05:59:00.918Z,101459.52
2022-09-06T06:01:30.964Z,101459.11
2022-09-06T06:04:01.974Z,101459.99
2022-09-06T06:06:32.956Z,101458.92
2022-09-06T06:09:03.765Z,101457.23
2022-09-06T06:11:33.306Z,101459.27
2022-09-06T06:14:03.916Z,101455.68
2022-09-06T06:16:33.487Z,101454.51
2022-09-06T06:19:02.439Z,101455.56
2022-09-06T06:21:33.417Z,101458.60
2022-09-06T06:24:04.216Z,101457.23
2022-09-06T06:26:36.341Z,101457.23
2022-09-06T06:29:08.951Z,101459.90
2022-09-06T06:31:41.092Z,101454.06
2022-09-06T06:34:10.569Z,101453.52
2022-09-06T06:36:39.799Z,101455.13
2022-09-06T06:39:10.805Z,101458.42
2022-09-06T06:41:40.536Z,101463.96
2022-09-06T06:44:10.160Z,101467.20
2022-09-06T06:46:42.902Z,101471.83
2022-09-06T06:49:13.868Z,101472.41
2022-09-06T06:51:43.116Z,101473.49
2022-09-06T06:54:12.140Z,101475.33
2022-09-06T06:56:42.045Z,101477.08
2022-09-06T06:59:11.374Z,101475.33
2022-09-06T07:01:40.602Z,101477.51
2022-09-06T07:04:11.822Z,101477.21
2022-09-06T07:12:30.355Z,101466.83
2022-09-06T07:14:59.627Z,101468.33
2022-09-06T07:17:29.294Z,101471.91
2022-09-06T07:20:14.300Z,101470.84
2022-09-06T07:22:44.469Z,101471.25
2022-09-06T07:25:20.550Z,101475.96
2022-09-06T07:28:00.580Z,101476.31
2022-09-06T07:30:31.601Z,101479.70
2022-09-06T07:33:01.241Z,101482.63
2022-09-06T07:35:30.095Z,101481.96
2022-09-06T07:38:01.206Z,101483.31
2022-09-06T07:40:31.425Z,101482.64
2022-09-06T07:43:00.966Z,101483.16
2022-09-06T07:45:29.955Z,101487.01
2022-09-06T07:47:59.491Z,101488.81
2022-09-06T07:53:29.326Z,101489.58
2022-09-06T07:56:01.418Z,101489.77
2022-09-06T07:58:31.409Z,101491.31
2022-09-06T08:01:19.956Z,101493.04
2022-09-06T08:03:49.256Z,101493.17
2022-09-06T08:06:18.556Z,101493.50
2022-09-06T08:09:02.673Z,101491.00
2022-09-06T08:11:33.793Z,101487.25
2022-09-06T08:14:04.832Z,101489.08
2022-09-06T08:16:36.014Z,101488.91
2022-09-06T08:19:07.921Z,101484.42
2022-09-06T08:21:37.276Z,101487.15
2022-09-06T08:24:09.205Z,101485.65
2022-09-06T08:26:39.994Z,101486.80
2022-09-06T08:29:10.341Z,101483.82
2022-09-06T08:31:42.337Z,101481.21
2022-09-06T08:34:12.271Z,101482.67
2022-09-06T08:36:42.547Z,101485.40
2022-09-06T08:39:12.293Z,101486.61
2022-09-06T08:41:48.836Z,101483.81
2022-09-06T08:47:13.748Z,101476.65
2022-09-06T08:49:45.613Z,101473.72
2022-09-06T08:52:28.769Z,101472.32
2022-09-06T08:55:10.998Z,101467.12
2022-09-06T08:57:51.940Z,101465.20
2022-09-06T09:00:22.709Z,101452.11
2022-09-06T09:03:01.184Z,101444.21
2022-09-06T09:05:33.235Z,101437.14
2022-09-06T09:08:13.318Z,101439.70
2022-09-06T09:10:45.809Z,101438.65
2022-09-06T09:13:28.695Z,101438.26
2022-09-06T09:16:00.658Z,101434.16
2022-09-06T09:18:33.821Z,101435.21
2022-09-06T09:21:02.955Z,101423.58
2022-09-06T09:23:32.216Z,101419.88
2022-09-06T09:26:06.063Z,101415.30
2022-09-06T09:28:35.386Z,101409.67
2022-09-06T09:31:07.164Z,101409.80
2022-09-06T09:33:38.506Z,101408.19
2022-09-06T09:36:12.719Z,101404.77
2022-09-06T09:38:45.819Z,101406.41
2022-09-06T09:41:27.324Z,101403.54
2022-09-06T09:44:03.674Z,101399.83
2022-09-06T09:46:36.070Z,101400.63
2022-09-06T09:49:09.140Z,101396.71
2022-09-06T09:51:42.634Z,101399.48
2022-09-06T09:54:14.540Z,101396.71
2022-09-06T09:56:47.992Z,101395.14
2022-09-06T09:59:26.258Z,101393.96
2022-09-06T10:01:59.499Z,101392.65
2022-09-06T10:04:43.904Z,101384.27
2022-09-06T10:07:16.703Z,101380.08
2022-09-06T10:09:48.393Z,101377.98
2022-09-06T10:12:28.989Z,101378.58
2022-09-06T10:15:01.204Z,101376.55
2022-09-06T10:17:34.847Z,101372.95
2022-09-06T10:20:08.436Z,101374.34
2022-09-06T10:22:49.422Z,101369.48
2022-09-06T10:25:37.955Z,101365.91
2022-09-06T10:28:23.636Z,101363.23
2022-09-06T10:31:06.741Z,101360.46
2022-09-06T10:33:45.060Z,101358.56
2022-09-06T10:36:19.564Z,101361.67
2022-09-06T10:38:54.528Z,101359.70
2022-09-06T10:42:00.554Z,101356.65
2022-09-06T10:44:45.532Z,101359.15
2022-09-06T10:47:16.154Z,101359.14
2022-09-06T10:49:49.373Z,101353.96
2022-09-06T10:52:24.408Z,101353.33
2022-09-06T10:54:57.188Z,101352.52
2022-09-06T11:00:22.829Z,101351.30
2022-09-06T11:05:54.989Z,101349.69
2022-09-06T11:08:49.719Z,101347.52
2022-09-06T11:11:26.499Z,101342.16
2022-09-06T11:13:55.946Z,101339.25
2022-09-06T11:16:29.256Z,101338.96
2022-09-06T11:19:03.703Z,101334.33
2022-09-06T11:22:02.169Z,101332.20
2022-09-06T11:24:45.172Z,101328.37
2022-09-06T11:27:21.946Z,101328.70
2022-09-06T11:29:55.951Z,101326.90
2022-09-06T11:32:37.468Z,101325.94
2022-09-06T11:35:10.727Z,101325.44
2022-09-06T11:37:44.247Z,101318.90
2022-09-06T11:43:14.150Z,101314.01
2022-09-06T11:45:47.138Z,101312.45
2022-09-06T11:48:48.535Z,101311.90
2022-09-06T11:51:34.496Z,101308.00
2022-09-06T11:54:21.671Z,101306.56
2022-09-06T11:57:00.806Z,101308.27
2022-09-06T11:59:45.091Z,101309.73
2022-09-06T12:02:46.622Z,101304.81
2022-09-06T12:05:19.471Z,101299.80
2022-09-06T12:08:28.656Z,101295.54
2022-09-06T12:11:06.884Z,101294.90
2022-09-06T12:13:41.422Z,101288.52
2022-09-06T12:16:20.268Z,101288.69
2022-09-06T12:18:59.968Z,101278.31
2022-09-06T12:21:46.782Z,101276.19
2022-09-06T12:24:51.005Z,101273.23
2022-09-06T12:27:21.764Z,101258.58
2022-09-06T12:29:58.369Z,101260.64
2022-09-06T12:32:36.075Z,101256.56
2022-09-06T12:38:03.256Z,101247.92
2022-09-06T12:40:35.310Z,101244.45
2022-09-06T12:43:05.288Z,101246.26
2022-09-06T12:45:34.571Z,101247.88
2022-09-06T12:48:08.979Z,101244.05
2022-09-06T12:50:38.683Z,101243.58
2022-09-06T12:53:23.935Z,101230.08
2022-09-06T12:56:05.571Z,101234.11
2022-09-06T12:58:35.847Z,101236.91
2022-09-06T13:01:12.761Z,101241.07
2022-09-06T13:03:45.537Z,101242.92
2022-09-06T13:06:23.237Z,101237.88
2022-09-06T13:08:57.388Z,101238.04
2022-09-06T13:11:30.950Z,101238.31
2022-09-06T13:14:03.504Z,101236.30
2022-09-06T13:16:37.821Z,101234.56
2022-09-06T13:19:17.660Z,101229.63
2022-09-06T13:21:47.277Z,101228.80
2022-09-06T13:24:24.655Z,101229.10
2022-09-06T13:26:54.588Z,101225.75
2022-09-06T13:29:24.843Z,101221.76
2022-09-06T13:31:56.905Z,101226.27
2022-09-06T13:34:28.368Z,101223.63
2022-09-06T13:37:03.359Z,101221.27
2022-09-06T13:39:34.186Z,101215.95
2022-09-06T13:42:08.363Z,101214.86
2022-09-06T13:44:39.675Z,101215.61
2022-09-06T13:47:08.778Z,101212.48
2022-09-06T13:49:37.662Z,101209.13
2022-09-06T13:52:07.588Z,101206.77
2022-09-06T13:54:39.712Z,101204.55
2022-09-06T13:57:09.347Z,101199.69
2022-09-06T13:59:38.829Z,101197.55
2022-09-06T14:02:11.682Z,101202.35
2022-09-06T14:04:40.811Z,101199.02
2022-09-06T14:07:09.929Z,101200.23
2022-09-06T14:09:39.219Z,101194.75
2022-09-06T14:12:09.778Z,101188.70
2022-09-06T14:14:39.041Z,101186.90
2022-09-06T14:17:08.230Z,101184.83
2022-09-06T14:19:38.590Z,101181.02
2022-09-06T14:22:08.721Z,101175.31
2022-09-06T14:24:38.674Z,101175.24
2022-09-06T14:27:08.422Z,101176.05
2022-09-06T14:29:38.350Z,101175.36
2022-09-06T14:32:10.720Z,101171.30
2022-09-06T14:34:41.711Z,101167.35
2022-09-06T14:37:13.533Z,101165.64
2022-09-06T14:39:43.206Z,101163.08
2022-09-06T14:42:12.952Z,101165.44
2022-09-06T14:44:42.225Z,101164.08
2022-09-06T14:47:12.258Z,101164.71
2022-09-06T14:49:41.344Z,101165.61
2022-09-06T14:52:10.389Z,101162.96
2022-09-06T14:54:39.922Z,101161.44
2022-09-06T14:57:13.766Z,101162.90
2022-09-06T14:59:42.941Z,101165.92
2022-09-06T15:02:12.214Z,101165.10
2022-09-06T15:04:41.293Z,101164.36
2022-09-06T15:07:10.632Z,101161.91
2022-09-06T15:09:40.445Z,101161.36
2022-09-06T15:12:09.645Z,101161.66
2022-09-06T15:14:40.651Z,101157.15
2022-09-06T15:17:10.668Z,101151.95
2022-09-06T15:19:39.863Z,101156.27
2022-09-06T15:22:09.006Z,101156.10
2022-09-06T15:24:38.154Z,101158.55
2022-09-06T15:27:07.420Z,101153.30
2022-09-06T15:29:36.461Z,101157.00
2022-09-06T15:32:05.859Z,101153.48
2022-09-06T15:34:35.144Z,101154.63
2022-09-06T15:37:04.309Z,101155.56
2022-09-06T15:39:33.564Z,101152.94
2022-09-06T15:42:02.701Z,101153.84
2022-09-06T15:44:32.668Z,101154.06
2022-09-06T15:47:01.851Z,101145.89
2022-09-06T15:49:32.372Z,101146.86
2022-09-06T15:52:05.483Z,101143.45
2022-09-06T15:54:52.740Z,101140.74
2022-09-06T15:57:22.382Z,101141.12
2022-09-06T15:59:51.896Z,101138.59
2022-09-06T16:02:21.785Z,101131.48
2022-09-06T16:04:51.409Z,101128.38
2022-09-06T16:07:20.728Z,101122.58
2022-09-06T16:09:49.782Z,101121.66
2022-09-06T16:12:18.844Z,101122.80
2022-09-06T16:14:48.106Z,101117.52
2022-09-06T16:17:17.199Z,101114.84
2022-09-06T16:19:46.331Z,101114.63
2022-09-06T16:22:15.613Z,101113.23
2022-09-06T16:24:44.792Z,101110.81
2022-09-06T16:27:14.020Z,101110.60
2022-09-06T16:29:44.659Z,101113.59
2022-09-06T16:32:13.761Z,101114.36
2022-09-06T16:34:42.915Z,101114.20
2022-09-06T16:37:12.438Z,101109.95
2022-09-06T16:39:42.577Z,101111.13
2022-09-06T16:42:12.761Z,101112.26
2022-09-06T16:44:42.116Z,101112.13
2022-09-06T16:47:14.789Z,101110.20
2022-09-06T16:49:46.229Z,101113.50
2022-09-06T16:52:15.283Z,101111.89
2022-09-06T16:54:44.317Z,101117.49
2022-09-06T16:57:14.465Z,101120.46
2022-09-06T16:59:43.597Z,101125.77
2022-09-06T17:02:12.774Z,101127.32
2022-09-06T17:04:42.457Z,101130.45
2022-09-06T17:07:11.539Z,101131.89
2022-09-06T17:09:41.212Z,101130.19
2022-09-06T17:12:10.632Z,101133.34
2022-09-06T17:14:39.905Z,101137.68
2022-09-06T17:17:09.476Z,101142.95
2022-09-06T17:19:40.939Z,101145.59
2022-09-06T17:22:12.159Z,101148.69
2022-09-06T17:24:41.759Z,101149.17
2022-09-06T17:27:11.001Z,101146.52
2022-09-06T17:29:40.347Z,101151.73
2022-09-06T17:32:10.209Z,101155.05
2022-09-06T17:34:40.718Z,101160.61
2022-09-06T17:37:09.907Z,101162.57
2022-09-06T17:39:39.921Z,101166.52
2022-09-06T17:42:09.237Z,101165.17
2022-09-06T17:44:46.570Z,101165.39
2022-09-06T17:47:16.095Z,101169.95
2022-09-06T17:49:46.750Z,101172.52
2022-09-06T17:52:16.378Z,101176.07
2022-09-06T17:54:46.755Z,101184.64
2022-09-06T17:57:16.054Z,101182.55
2022-09-06T17:59:45.211Z,101182.13
2022-09-06T18:02:14.427Z,101182.75
2022-09-06T18:04:43.689Z,101183.14
2022-09-06T18:07:12.893Z,101182.55
2022-09-06T18:09:43.706Z,101188.27
2022-09-06T18:12:13.319Z,101193.83
2022-09-06T18:14:42.317Z,101198.86
2022-09-06T18:17:11.422Z,101197.27
2022-09-06T18:19:40.659Z,101196.23
2022-09-06T18:22:09.889Z,101195.77
2022-09-06T18:24:39.447Z,101198.91
2022-09-06T18:27:08.809Z,101207.65
2022-09-06T18:29:38.810Z,101203.48
2022-09-06T18:32:08.433Z,101206.52
2022-09-06T18:34:37.706Z,101210.16
2022-09-06T18:37:06.960Z,101209.66
2022-09-06T18:39:36.224Z,101217.59
2022-09-06T18:42:10.612Z,101212.11
2022-09-06T18:44:40.479Z,101205.44
2022-09-06T18:47:11.686Z,101204.50
2022-09-06T18:49:44.134Z,101206.55
2022-09-06T18:52:15.350Z,101206.85
2022-09-06T18:54:44.698Z,101203.55
2022-09-06T18:57:15.347Z,101203.65
2022-09-06T18:59:44.660Z,101204.61
2022-09-06T19:02:13.771Z,101202.67
2022-09-06T19:04:42.935Z,101200.45
2022-09-06T19:07:12.467Z,101202.52
2022-09-06T19:09:41.671Z,101205.88
2022-09-06T19:12:11.528Z,101206.92
2022-09-06T19:14:41.105Z,101207.36
2022-09-06T19:17:10.114Z,101206.99
2022-09-06T19:19:39.292Z,101206.49
2022-09-06T19:22:08.744Z,101203.23
2022-09-06T19:24:38.626Z,101202.79
2022-09-06T19:27:07.882Z,101201.27
2022-09-06T19:29:37.176Z,101200.42
2022-09-06T19:32:06.671Z,101196.25
2022-09-06T19:34:36.173Z,101196.23
2022-09-06T19:37:05.742Z,101194.56
2022-09-06T19:39:37.152Z,101197.25
2022-09-06T19:42:07.559Z,101199.27
2022-09-06T19:44:37.202Z,101200.30
2022-09-06T19:47:13.304Z,101199.67
2022-09-06T19:49:43.212Z,101193.55
2022-09-06T19:52:12.839Z,101194.55
2022-09-06T19:54:42.820Z,101188.65
2022-09-06T19:57:12.224Z,101189.55
2022-09-06T19:59:48.793Z,101189.36
2022-09-06T20:02:22.207Z,101190.59
2022-09-06T20:04:54.281Z,101194.25
2022-09-06T20:07:28.000Z,101200.31
2022-09-06T20:09:57.251Z,101199.00
2022-09-06T20:12:29.157Z,101196.36
2022-09-06T20:14:58.924Z,101191.23
2022-09-06T20:17:35.531Z,101185.69
2022-09-06T20:20:07.971Z,101190.27
2022-09-06T20:22:37.460Z,101190.98
2022-09-06T20:25:11.373Z,101189.20
2022-09-06T20:27:44.429Z,101192.89
2022-09-06T20:30:14.235Z,101187.05
2022-09-06T20:32:43.569Z,101193.58
2022-09-06T20:35:13.550Z,101197.02
2022-09-06T20:37:42.852Z,101201.74
2022-09-06T20:40:13.401Z,101205.03
2022-09-06T20:42:45.485Z,101209.05
2022-09-06T20:45:15.253Z,101211.13
2022-09-06T20:47:44.627Z,101210.95
2022-09-06T20:50:13.726Z,101211.95
2022-09-06T20:52:42.809Z,101212.23
2022-09-06T20:55:12.331Z,101212.38
2022-09-06T20:57:41.732Z,101211.97
2022-09-06T21:00:15.867Z,101213.16
2022-09-06T21:02:45.854Z,101208.18
2022-09-06T21:05:16.137Z,101208.00
2022-09-06T21:07:45.139Z,101208.66
2022-09-06T21:10:15.216Z,101205.48
2022-09-06T21:12:44.414Z,101205.11
2022-09-06T21:15:13.848Z,101205.61
2022-09-06T21:17:44.245Z,101204.17
2022-09-06T21:20:13.733Z,101202.23
2022-09-06T21:22:43.996Z,101201.77
2022-09-06T21:25:13.576Z,101205.54
2022-09-06T21:27:43.121Z,101208.04
2022-09-06T21:30:14.777Z,101206.08
2022-09-06T21:32:43.906Z,101204.09
2022-09-06T21:35:13.448Z,101202.13
2022-09-06T21:37:42.523Z,101199.55
2022-09-06T21:40:12.201Z,101200.65
2022-09-06T21:42:41.464Z,101199.04
2022-09-06T21:45:12.581Z,101200.91
2022-09-06T21:47:41.924Z,101201.39
2022-09-06T21:50:12.419Z,101199.44
2022-09-06T21:52:41.850Z,101194.64
2022-09-06T21:55:15.440Z,101200.88
2022-09-06T21:57:45.275Z,101202.55
2022-09-06T22:00:16.146Z,101200.88
2022-09-06T22:02:45.051Z,101202.05
2022-09-06T22:05:14.987Z,101200.98
2022-09-06T22:07:44.000Z,101202.61
2022-09-06T22:10:13.043Z,101197.48
2022-09-06T22:12:43.466Z,101196.95
2022-09-06T22:15:13.255Z,101197.66
2022-09-06T22:17:42.804Z,101196.52
2022-09-06T22:20:12.891Z,101192.73
2022-09-06T22:22:43.525Z,101192.38
2022-09-06T22:25:13.105Z,101192.39
2022-09-06T22:27:42.773Z,101190.27
2022-09-06T22:30:13.764Z,101188.98
2022-09-06T22:32:42.988Z,101188.65
2022-09-06T22:35:12.409Z,101190.75
2022-09-06T22:37:41.669Z,101185.48
2022-09-06T22:40:12.118Z,101185.08
2022-09-06T22:42:41.641Z,101182.73
2022-09-06T22:45:11.698Z,101184.08
2022-09-06T22:47:41.198Z,101183.91
2022-09-06T22:50:11.923Z,101183.73
2022-09-06T22:52:41.145Z,101182.60
2022-09-06T22:55:11.308Z,101183.11
2022-09-06T22:57:40.736Z,101187.02
2022-09-06T23:00:12.544Z,101189.46
2022-09-06T23:02:42.138Z,101193.40
2022-09-06T23:05:11.524Z,101190.71
2022-09-06T23:07:42.943Z,101185.91
2022-09-06T23:10:12.431Z,101185.95
2022-09-06T23:12:41.918Z,101188.80
2022-09-06T23:15:12.011Z,101188.30
2022-09-06T23:17:41.101Z,101187.44
2022-09-06T23:20:11.908Z,101187.34
2022-09-06T23:22:41.852Z,101189.25
2022-09-06T23:25:15.630Z,101186.27
2022-09-06T23:27:45.493Z,101192.55
2022-09-06T23:30:15.017Z,101188.95
2022-09-06T23:32:44.055Z,101189.15
2022-09-06T23:35:13.386Z,101186.35
2022-09-06T23:37:42.580Z,101190.65
2022-09-06T23:40:12.135Z,101186.96
2022-09-06T23:42:41.515Z,101186.46
2022-09-06T23:45:11.788Z,101188.10
2022-09-06T23:47:42.600Z,101186.66
2022-09-06T23:50:12.512Z,101188.67
2022-09-06T23:52:41.679Z,101186.21
2022-09-06T23:55:11.173Z,101184.95
2022-09-06T23:57:40.913Z,101185.86
